createdAt,value
2023-04-25T00:00:22.804Z,4.91
2023-04-25T00:01:22.793Z,4.91
2023-04-25T00:02:22.819Z,4.88
2023-04-25T00:03:23.134Z,4.87
2023-04-25T00:04:23.184Z,4.84
2023-04-25T00:05:22.812Z,4.80
2023-04-25T00:06:22.692Z,4.80
2023-04-25T00:07:22.686Z,4.77
2023-04-25T00:08:22.654Z,4.77
2023-04-25T00:09:22.666Z,4.75
2023-04-25T00:10:22.707Z,4.74
2023-04-25T00:11:22.656Z,4.71
2023-04-25T00:12:22.627Z,4.71
2023-04-25T00:13:22.593Z,4.68
2023-04-25T00:14:22.618Z,4.67
2023-04-25T00:15:22.584Z,4.68
2023-04-25T00:16:22.653Z,4.67
2023-04-25T00:17:22.602Z,4.65
2023-04-25T00:18:22.556Z,4.64
2023-04-25T00:19:22.526Z,4.62
2023-04-25T00:20:22.515Z,4.59
2023-04-25T00:21:22.539Z,4.57
2023-04-25T00:22:22.517Z,4.56
2023-04-25T00:23:22.468Z,4.54
2023-04-25T00:24:22.472Z,4.53
2023-04-25T00:25:22.461Z,4.50
2023-04-25T00:26:22.433Z,4.49
2023-04-25T00:27:22.467Z,4.47
2023-04-25T00:28:22.429Z,4.46
2023-04-25T00:29:22.408Z,4.44
2023-04-25T00:30:22.372Z,4.42
2023-04-25T00:31:22.397Z,4.39
2023-04-25T00:32:22.367Z,4.36
2023-04-25T00:33:22.344Z,4.36
2023-04-25T00:34:22.339Z,4.35
2023-04-25T00:35:22.341Z,4.35
2023-04-25T00:36:22.362Z,4.32
2023-04-25T00:37:22.298Z,4.32
2023-04-25T00:38:22.280Z,4.31
2023-04-25T00:39:22.300Z,4.29
2023-04-25T00:40:22.273Z,4.28
2023-04-25T00:41:22.246Z,4.26
2023-04-25T00:42:22.230Z,4.25
2023-04-25T00:43:22.229Z,4.25
2023-04-25T00:44:22.235Z,4.26
2023-04-25T00:45:22.210Z,4.26
2023-04-25T00:46:22.234Z,4.26
2023-04-25T00:47:22.205Z,4.25
2023-04-25T00:48:22.179Z,4.25
2023-04-25T00:49:22.134Z,4.25
2023-04-25T00:50:22.121Z,4.24
2023-04-25T00:51:22.123Z,4.21
2023-04-25T00:52:22.119Z,4.21
2023-04-25T00:53:22.109Z,4.21
2023-04-25T00:54:22.131Z,4.21
2023-04-25T00:55:22.070Z,4.24
2023-04-25T00:56:22.075Z,4.18
2023-04-25T00:57:22.039Z,4.24
2023-04-25T00:58:22.026Z,4.25
2023-04-25T00:59:22.088Z,4.28
2023-04-25T01:00:21.997Z,4.28
2023-04-25T01:01:22.082Z,4.31
2023-04-25T01:02:22.140Z,4.34
2023-04-25T01:03:22.115Z,4.38
2023-04-25T01:04:22.129Z,4.43
2023-04-25T01:05:21.929Z,4.46
2023-04-25T01:06:21.917Z,4.49
2023-04-25T01:07:21.918Z,4.51
2023-04-25T01:08:21.918Z,4.57
2023-04-25T01:09:21.930Z,4.61
2023-04-25T01:10:21.862Z,4.64
2023-04-25T01:11:21.863Z,4.64
2023-04-25T01:12:21.855Z,4.64
2023-04-25T01:13:21.823Z,4.65
2023-04-25T01:14:21.832Z,4.65
2023-04-25T01:15:21.817Z,4.67
2023-04-25T01:16:21.861Z,4.65
2023-04-25T01:17:21.776Z,4.65
2023-04-25T01:18:21.821Z,4.62
2023-04-25T01:19:21.781Z,4.62
2023-04-25T01:20:21.743Z,4.61
2023-04-25T01:21:21.710Z,4.56
2023-04-25T01:22:21.714Z,4.56
2023-04-25T01:23:21.702Z,4.51
2023-04-25T01:24:21.731Z,4.50
2023-04-25T01:25:21.666Z,4.49
2023-04-25T01:26:21.676Z,4.47
2023-04-25T01:27:21.637Z,4.46
2023-04-25T01:28:21.647Z,4.44
2023-04-25T01:29:21.633Z,4.43
2023-04-25T01:30:21.621Z,4.39
2023-04-25T01:31:21.614Z,4.38
2023-04-25T01:32:21.615Z,4.36
2023-04-25T01:33:21.616Z,4.34
2023-04-25T01:34:21.582Z,4.32
2023-04-25T01:35:21.572Z,4.28
2023-04-25T01:36:21.541Z,4.26
2023-04-25T01:37:21.529Z,4.24
2023-04-25T01:38:21.521Z,4.21
2023-04-25T01:39:21.505Z,4.18
2023-04-25T01:40:21.498Z,4.18
2023-04-25T01:41:22.229Z,4.17
2023-04-25T01:42:21.456Z,4.17
2023-04-25T01:43:21.448Z,4.14
2023-04-25T01:44:21.431Z,4.13
2023-04-25T01:45:21.437Z,4.13
2023-04-25T01:46:21.500Z,4.10
2023-04-25T01:47:21.392Z,4.07
2023-04-25T01:48:21.379Z,4.06
2023-04-25T01:49:21.373Z,4.06
2023-04-25T01:50:21.399Z,4.04
2023-04-25T01:51:21.336Z,4.02
2023-04-25T01:52:21.349Z,4.02
2023-04-25T01:53:21.296Z,4.02
2023-04-25T01:54:21.305Z,4.06
2023-04-25T01:55:21.296Z,4.07
2023-04-25T01:56:21.269Z,4.08
2023-04-25T01:57:21.295Z,4.10
2023-04-25T01:58:21.300Z,4.11
2023-04-25T01:59:21.234Z,4.13
2023-04-25T02:00:21.244Z,4.14
2023-04-25T02:01:21.251Z,4.17
2023-04-25T02:02:21.361Z,4.16
2023-04-25T02:03:21.373Z,4.17
2023-04-25T02:04:21.238Z,4.17
2023-04-25T02:05:21.169Z,4.18
2023-04-25T02:06:21.850Z,4.20
2023-04-25T02:07:21.152Z,4.21
2023-04-25T02:08:21.129Z,4.21
2023-04-25T02:09:21.102Z,4.25
2023-04-25T02:10:21.096Z,4.26
2023-04-25T02:11:21.127Z,4.28
2023-04-25T02:12:21.104Z,4.29
2023-04-25T02:13:21.063Z,4.31
2023-04-25T02:14:21.048Z,4.29
2023-04-25T02:15:21.048Z,4.29
2023-04-25T02:16:21.039Z,4.29
2023-04-25T02:17:21.002Z,4.28
2023-04-25T02:18:21.107Z,4.26
2023-04-25T02:19:20.965Z,4.24
2023-04-25T02:20:20.950Z,4.24
2023-04-25T02:21:20.942Z,4.24
2023-04-25T02:22:20.961Z,4.26
2023-04-25T02:23:20.923Z,4.25
2023-04-25T02:24:20.913Z,4.25
2023-04-25T02:25:20.912Z,4.24
2023-04-25T02:26:20.893Z,4.21
2023-04-25T02:27:20.895Z,4.17
2023-04-25T02:28:20.859Z,4.16
2023-04-25T02:29:20.866Z,4.13
2023-04-25T02:30:20.859Z,4.11
2023-04-25T02:31:20.846Z,4.08
2023-04-25T02:32:20.816Z,4.06
2023-04-25T02:33:20.802Z,4.04
2023-04-25T02:34:20.781Z,4.00
2023-04-25T02:35:20.802Z,4.00
2023-04-25T02:36:20.752Z,3.96
2023-04-25T02:37:20.785Z,3.96
2023-04-25T02:38:20.768Z,3.98
2023-04-25T02:39:20.735Z,3.96
2023-04-25T02:40:20.765Z,3.95
2023-04-25T02:41:20.720Z,3.93
2023-04-25T02:42:20.683Z,3.90
2023-04-25T02:43:20.662Z,3.92
2023-04-25T02:44:20.669Z,3.89
2023-04-25T02:45:20.655Z,3.90
2023-04-25T02:46:32.166Z,3.89
2023-04-25T02:47:21.753Z,3.89
2023-04-25T02:48:20.617Z,3.89
2023-04-25T02:49:20.606Z,3.90
2023-04-25T02:50:20.556Z,3.89
2023-04-25T02:51:20.884Z,3.88
2023-04-25T02:52:20.558Z,3.88
2023-04-25T02:53:20.518Z,3.84
2023-04-25T02:54:20.506Z,3.80
2023-04-25T02:55:20.494Z,3.77
2023-04-25T02:56:20.510Z,3.75
2023-04-25T02:57:20.523Z,3.72
2023-04-25T02:58:20.458Z,3.71
2023-04-25T02:59:20.444Z,3.67
2023-04-25T03:00:20.448Z,3.63
2023-04-25T03:01:20.544Z,3.63
2023-04-25T03:02:20.495Z,3.63
2023-04-25T03:03:20.584Z,3.59
2023-04-25T03:04:20.475Z,3.57
2023-04-25T03:05:20.440Z,3.54
2023-04-25T03:06:20.370Z,3.53
2023-04-25T03:07:20.357Z,3.52
2023-04-25T03:08:20.358Z,3.46
2023-04-25T03:09:20.994Z,3.46
2023-04-25T03:10:20.325Z,3.45
2023-04-25T03:11:20.287Z,3.44
2023-04-25T03:12:20.389Z,3.44
2023-04-25T03:13:20.268Z,3.42
2023-04-25T03:14:20.254Z,3.42
2023-04-25T03:15:20.250Z,3.39
2023-04-25T03:16:20.245Z,3.37
2023-04-25T03:17:20.239Z,3.34
2023-04-25T03:18:20.204Z,3.33
2023-04-25T03:19:20.236Z,3.26
2023-04-25T03:20:20.211Z,3.25
2023-04-25T03:21:20.184Z,3.23
2023-04-25T03:22:20.176Z,3.22
2023-04-25T03:23:20.177Z,3.20
2023-04-25T03:24:20.112Z,3.20
2023-04-25T03:25:20.141Z,3.19
2023-04-25T03:26:20.166Z,3.19
2023-04-25T03:27:20.104Z,3.17
2023-04-25T03:28:20.107Z,3.15
2023-04-25T03:29:20.066Z,3.12
2023-04-25T03:30:20.049Z,3.10
2023-04-25T03:31:20.068Z,3.10
2023-04-25T03:32:20.087Z,3.07
2023-04-25T03:33:20.184Z,3.04
2023-04-25T03:34:20.049Z,3.04
2023-04-25T03:35:19.987Z,2.99
2023-04-25T03:36:19.991Z,2.98
2023-04-25T03:37:19.961Z,2.98
2023-04-25T03:38:19.998Z,2.95
2023-04-25T03:39:19.972Z,2.94
2023-04-25T03:40:19.909Z,2.92
2023-04-25T03:41:19.902Z,2.90
2023-04-25T03:42:19.908Z,2.89
2023-04-25T03:43:23.746Z,2.89
2023-04-25T03:44:19.908Z,2.87
2023-04-25T03:45:19.842Z,2.86
2023-04-25T03:46:19.913Z,2.84
2023-04-25T03:47:19.830Z,2.86
2023-04-25T03:48:19.841Z,2.86
2023-04-25T03:49:19.821Z,2.87
2023-04-25T03:50:19.806Z,2.86
2023-04-25T03:51:19.805Z,2.86
2023-04-25T03:52:19.887Z,2.86
2023-04-25T03:53:19.756Z,2.84
2023-04-25T03:54:19.733Z,2.86
2023-04-25T03:55:19.724Z,2.87
2023-04-25T03:56:19.738Z,2.87
2023-04-25T03:57:19.708Z,2.87
2023-04-25T03:58:19.687Z,2.87
2023-04-25T03:59:19.688Z,2.89
2023-04-25T04:00:19.673Z,2.89
2023-04-25T04:01:19.639Z,2.87
2023-04-25T04:02:19.706Z,2.87
2023-04-25T04:03:19.830Z,2.87
2023-04-25T04:04:19.832Z,2.87
2023-04-25T04:05:19.657Z,2.86
2023-04-25T04:06:19.565Z,2.87
2023-04-25T04:07:19.566Z,2.87
2023-04-25T04:08:19.570Z,2.89
2023-04-25T04:09:19.559Z,2.89
2023-04-25T04:10:19.536Z,2.92
2023-04-25T04:11:19.527Z,2.92
2023-04-25T04:12:19.511Z,2.92
2023-04-25T04:13:19.488Z,2.94
2023-04-25T04:14:19.636Z,2.95
2023-04-25T04:15:19.471Z,2.97
2023-04-25T04:16:19.472Z,2.99
2023-04-25T04:17:19.488Z,3.02
2023-04-25T04:18:19.434Z,3.05
2023-04-25T04:19:19.403Z,3.07
2023-04-25T04:20:19.407Z,3.08
2023-04-25T04:21:19.360Z,3.10
2023-04-25T04:22:19.385Z,3.12
2023-04-25T04:23:19.349Z,3.15
2023-04-25T04:24:19.324Z,3.15
2023-04-25T04:25:19.328Z,3.17
2023-04-25T04:26:19.321Z,3.19
2023-04-25T04:27:19.331Z,3.19
2023-04-25T04:28:19.332Z,3.20
2023-04-25T04:29:19.260Z,3.23
2023-04-25T04:30:19.255Z,3.26
2023-04-25T04:31:19.383Z,3.26
2023-04-25T04:32:19.254Z,3.30
2023-04-25T04:33:19.233Z,3.33
2023-04-25T04:34:19.247Z,3.35
2023-04-25T04:35:19.200Z,3.37
2023-04-25T04:36:19.198Z,3.39
2023-04-25T04:37:19.185Z,3.41
2023-04-25T04:38:19.199Z,3.44
2023-04-25T04:39:19.163Z,3.46
2023-04-25T04:40:19.130Z,3.50
2023-04-25T04:41:19.172Z,3.53
2023-04-25T04:42:19.119Z,3.57
2023-04-25T04:43:19.094Z,3.63
2023-04-25T04:44:19.072Z,3.70
2023-04-25T04:45:19.118Z,3.74
2023-04-25T04:46:19.307Z,3.81
2023-04-25T04:47:19.056Z,4.04
2023-04-25T04:48:19.028Z,4.39
2023-04-25T04:49:19.017Z,4.80
2023-04-25T04:50:19.022Z,5.22
2023-04-25T04:51:18.989Z,5.58
2023-04-25T04:52:19.002Z,5.85
2023-04-25T04:53:18.962Z,6.13
2023-04-25T04:54:18.978Z,6.48
2023-04-25T04:55:18.978Z,6.82
2023-04-25T04:56:18.941Z,7.14
2023-04-25T04:57:19.186Z,7.33
2023-04-25T04:58:19.339Z,7.42
2023-04-25T04:59:18.906Z,7.47
2023-04-25T05:00:18.862Z,7.47
2023-04-25T05:01:18.890Z,7.39
2023-04-25T05:02:18.846Z,7.33
2023-04-25T05:03:18.904Z,7.26
2023-04-25T05:04:18.901Z,7.19
2023-04-25T05:05:18.804Z,7.15
2023-04-25T05:06:18.802Z,7.12
2023-04-25T05:07:18.799Z,7.08
2023-04-25T05:08:18.755Z,7.07
2023-04-25T05:09:18.765Z,7.07
2023-04-25T05:10:18.728Z,7.05
2023-04-25T05:11:18.728Z,7.09
2023-04-25T05:12:18.764Z,7.08
2023-04-25T05:13:18.718Z,7.09
2023-04-25T05:14:18.666Z,7.12
2023-04-25T05:15:19.022Z,7.15
2023-04-25T05:16:18.732Z,7.19
2023-04-25T05:17:18.634Z,7.23
2023-04-25T05:18:18.660Z,7.34
2023-04-25T05:19:18.607Z,7.62
2023-04-25T05:20:18.611Z,8.14
2023-04-25T05:21:18.638Z,8.75
2023-04-25T05:22:18.579Z,9.37
2023-04-25T05:23:18.566Z,9.99
2023-04-25T05:24:18.549Z,10.60
2023-04-25T05:25:18.641Z,11.16
2023-04-25T05:26:18.541Z,11.66
2023-04-25T05:27:18.513Z,12.19
2023-04-25T05:28:18.494Z,12.71
2023-04-25T05:29:18.505Z,13.22
2023-04-25T05:30:18.465Z,13.69
2023-04-25T05:31:18.501Z,14.09
2023-04-25T05:32:18.535Z,14.44
2023-04-25T05:33:18.488Z,14.78
2023-04-25T05:34:18.425Z,15.11
2023-04-25T05:35:18.463Z,15.43
2023-04-25T05:36:18.398Z,15.78
2023-04-25T05:37:18.377Z,16.17
2023-04-25T05:38:18.359Z,16.55
2023-04-25T05:39:18.425Z,16.90
2023-04-25T05:40:18.338Z,17.24
2023-04-25T05:41:18.324Z,17.55
2023-04-25T05:42:18.360Z,17.81
2023-04-25T05:43:18.298Z,18.01
2023-04-25T05:44:18.317Z,18.23
2023-04-25T05:45:18.340Z,18.50
2023-04-25T05:46:18.353Z,18.75
2023-04-25T05:47:18.253Z,19.01
2023-04-25T05:48:18.252Z,19.25
2023-04-25T05:49:19.632Z,19.45
2023-04-25T05:50:18.196Z,19.64
2023-04-25T05:51:18.193Z,19.85
2023-04-25T05:52:18.165Z,20.05
2023-04-25T05:53:18.161Z,20.15
2023-04-25T05:54:18.204Z,20.27
2023-04-25T05:55:18.187Z,20.42
2023-04-25T05:56:18.136Z,20.58
2023-04-25T05:57:18.431Z,20.73
2023-04-25T05:58:18.108Z,20.83
2023-04-25T05:59:18.096Z,20.90
2023-04-25T06:00:18.152Z,21.00
2023-04-25T06:01:18.081Z,21.13
2023-04-25T06:02:18.150Z,21.22
2023-04-25T06:03:20.437Z,21.38
2023-04-25T06:04:18.587Z,21.56
2023-04-25T06:05:18.225Z,21.75
2023-04-25T06:06:18.009Z,21.91
2023-04-25T06:07:18.001Z,22.09
2023-04-25T06:08:17.974Z,22.27
2023-04-25T06:09:17.991Z,22.46
2023-04-25T06:10:17.973Z,22.61
2023-04-25T06:11:17.931Z,22.81
2023-04-25T06:12:17.938Z,22.99
2023-04-25T06:13:17.923Z,23.21
2023-04-25T06:14:18.222Z,23.38
2023-04-25T06:15:28.069Z,23.47
2023-04-25T06:16:18.918Z,23.56
2023-04-25T06:17:17.864Z,23.64
2023-04-25T06:18:17.848Z,23.69
2023-04-25T06:19:17.829Z,23.75
2023-04-25T06:20:17.835Z,23.82
2023-04-25T06:21:17.785Z,23.96
2023-04-25T06:22:17.764Z,24.12
2023-04-25T06:23:17.774Z,24.12
2023-04-25T06:24:17.757Z,24.06
2023-04-25T06:25:17.778Z,24.05
2023-04-25T06:26:17.759Z,24.11
2023-04-25T06:27:17.732Z,24.19
2023-04-25T06:28:17.728Z,24.27
2023-04-25T06:29:17.695Z,24.29
2023-04-25T06:30:17.701Z,24.37
2023-04-25T06:31:17.704Z,24.48
2023-04-25T06:32:17.663Z,24.51
2023-04-25T06:33:17.630Z,24.51
2023-04-25T06:34:17.624Z,24.48
2023-04-25T06:35:17.623Z,24.53
2023-04-25T06:36:17.646Z,24.64
2023-04-25T06:37:17.655Z,24.80
2023-04-25T06:38:17.570Z,24.87
2023-04-25T06:39:17.591Z,24.77
2023-04-25T06:40:17.585Z,24.79
2023-04-25T06:41:17.658Z,24.89
2023-04-25T06:42:17.554Z,24.97
2023-04-25T06:43:17.515Z,25.02
2023-04-25T06:44:17.521Z,25.11
2023-04-25T06:45:17.521Z,25.29
2023-04-25T06:46:17.495Z,25.20
2023-04-25T06:47:17.548Z,24.82
2023-04-25T06:48:17.506Z,24.08
2023-04-25T06:49:17.456Z,23.89
2023-04-25T06:50:17.419Z,23.60
2023-04-25T06:51:17.445Z,23.06
2023-04-25T06:52:21.223Z,22.51
2023-04-25T06:53:17.385Z,21.99
2023-04-25T06:54:17.386Z,21.42
2023-04-25T06:55:17.377Z,20.76
2023-04-25T06:56:17.367Z,20.13
2023-04-25T06:57:17.348Z,19.58
2023-04-25T06:58:17.336Z,19.09
2023-04-25T06:59:17.315Z,18.68
2023-04-25T07:00:17.311Z,18.32
2023-04-25T07:01:17.340Z,18.04
2023-04-25T07:02:17.385Z,17.68
2023-04-25T07:03:17.434Z,17.35
2023-04-25T07:04:17.359Z,17.02
2023-04-25T07:05:19.208Z,16.72
2023-04-25T07:06:17.224Z,16.47
2023-04-25T07:07:17.209Z,16.14
2023-04-25T07:08:17.229Z,15.91
2023-04-25T07:09:17.187Z,15.71
2023-04-25T07:10:17.181Z,15.49
2023-04-25T07:11:17.172Z,15.33
2023-04-25T07:12:17.153Z,15.13
2023-04-25T07:13:17.140Z,14.93
2023-04-25T07:14:17.150Z,14.75
2023-04-25T07:15:17.762Z,14.57
2023-04-25T07:16:18.368Z,14.41
2023-04-25T07:17:18.082Z,14.29
2023-04-25T07:18:17.555Z,14.20
2023-04-25T07:19:18.750Z,14.08
2023-04-25T07:20:17.035Z,14.01
2023-04-25T07:21:17.017Z,13.90
2023-04-25T07:22:17.210Z,13.83
2023-04-25T07:23:17.017Z,13.75
2023-04-25T07:24:17.005Z,13.65
2023-04-25T07:25:16.974Z,13.54
2023-04-25T07:26:17.132Z,13.41
2023-04-25T07:27:17.184Z,13.31
2023-04-25T07:28:19.317Z,13.21
2023-04-25T07:29:17.323Z,13.07
2023-04-25T07:30:16.965Z,12.95
2023-04-25T07:31:16.897Z,12.87
2023-04-25T07:32:16.955Z,12.80
2023-04-25T07:33:17.194Z,12.73
2023-04-25T07:34:16.897Z,12.67
2023-04-25T07:35:16.858Z,12.58
2023-04-25T07:36:16.861Z,12.54
2023-04-25T07:37:19.310Z,12.46
2023-04-25T07:38:16.839Z,12.40
2023-04-25T07:39:16.823Z,12.36
2023-04-25T07:40:16.769Z,12.33
2023-04-25T07:41:16.839Z,12.26
2023-04-25T07:42:16.749Z,12.21
2023-04-25T07:43:16.763Z,12.13
2023-04-25T07:44:16.755Z,12.07
2023-04-25T07:45:16.718Z,11.98
2023-04-25T07:46:16.772Z,11.88
2023-04-25T07:47:16.707Z,11.81
2023-04-25T07:48:16.665Z,11.75
2023-04-25T07:49:16.672Z,11.72
2023-04-25T07:50:16.662Z,11.67
2023-04-25T07:51:16.633Z,11.63
2023-04-25T07:52:16.644Z,11.63
2023-04-25T07:53:16.616Z,11.62
2023-04-25T07:54:16.633Z,11.59
2023-04-25T07:55:16.616Z,11.54
2023-04-25T07:56:16.580Z,11.53
2023-04-25T07:57:16.549Z,11.49
2023-04-25T07:58:16.556Z,11.49
2023-04-25T07:59:16.545Z,11.46
2023-04-25T08:00:16.552Z,11.44
2023-04-25T08:01:16.506Z,11.42
2023-04-25T08:02:16.627Z,11.42
2023-04-25T08:03:16.666Z,11.42
2023-04-25T08:04:16.642Z,11.41
2023-04-25T08:05:17.803Z,11.41
2023-04-25T08:06:16.623Z,11.39
2023-04-25T08:07:16.440Z,11.42
2023-04-25T08:08:16.415Z,11.44
2023-04-25T08:09:16.398Z,11.42
2023-04-25T08:10:16.397Z,11.42
2023-04-25T08:11:16.366Z,11.42
2023-04-25T08:12:16.364Z,11.41
2023-04-25T08:13:16.346Z,11.39
2023-04-25T08:14:16.347Z,11.39
2023-04-25T08:15:16.341Z,11.39
2023-04-25T08:16:16.425Z,11.41
2023-04-25T08:17:16.301Z,11.41
2023-04-25T08:18:17.687Z,11.41
2023-04-25T08:19:16.283Z,11.42
2023-04-25T08:20:16.248Z,11.45
2023-04-25T08:21:16.236Z,11.46
2023-04-25T08:22:16.228Z,11.45
2023-04-25T08:23:16.235Z,11.44
2023-04-25T08:24:16.191Z,11.42
2023-04-25T08:25:16.196Z,11.39
2023-04-25T08:26:16.187Z,11.38
2023-04-25T08:27:16.154Z,11.36
2023-04-25T08:28:16.179Z,11.33
2023-04-25T08:29:16.139Z,11.31
2023-04-25T08:30:16.129Z,11.28
2023-04-25T08:31:16.170Z,11.27
2023-04-25T08:32:16.142Z,11.23
2023-04-25T08:33:16.274Z,11.17
2023-04-25T08:34:16.080Z,11.16
2023-04-25T08:35:16.065Z,11.09
2023-04-25T08:36:24.235Z,11.03
2023-04-25T08:37:17.266Z,10.99
2023-04-25T08:38:16.053Z,10.94
2023-04-25T08:39:15.997Z,10.91
2023-04-25T08:40:15.999Z,10.88
2023-04-25T08:41:16.025Z,10.86
2023-04-25T08:42:15.965Z,10.84
2023-04-25T08:43:16.087Z,10.83
2023-04-25T08:44:16.075Z,10.80
2023-04-25T08:45:15.928Z,10.78
2023-04-25T08:46:15.970Z,10.75
2023-04-25T08:47:15.896Z,10.69
2023-04-25T08:48:15.960Z,10.66
2023-04-25T08:49:15.929Z,10.62
2023-04-25T08:50:15.878Z,10.63
2023-04-25T08:51:15.872Z,10.57
2023-04-25T08:52:15.826Z,10.51
2023-04-25T08:53:15.836Z,10.49
2023-04-25T08:54:30.230Z,10.47
2023-04-25T08:55:16.892Z,10.44
2023-04-25T08:56:16.090Z,10.43
2023-04-25T08:57:15.783Z,10.42
2023-04-25T08:58:15.788Z,10.42
2023-04-25T08:59:15.787Z,10.38
2023-04-25T09:00:15.763Z,10.38
2023-04-25T09:01:15.774Z,10.36
2023-04-25T09:02:15.819Z,10.35
2023-04-25T09:03:15.864Z,10.35
2023-04-25T09:04:15.821Z,10.35
2023-04-25T09:05:15.638Z,10.36
2023-04-25T09:06:15.645Z,10.32
2023-04-25T09:07:15.643Z,10.34
2023-04-25T09:08:15.627Z,10.34
2023-04-25T09:09:15.711Z,10.32
2023-04-25T09:10:15.592Z,10.31
2023-04-25T09:11:15.556Z,10.28
2023-04-25T09:12:15.612Z,10.24
2023-04-25T09:13:15.585Z,10.24
2023-04-25T09:14:15.540Z,10.22
2023-04-25T09:16:15.542Z,10.22
2023-04-25T09:17:15.653Z,10.18
2023-04-25T09:18:15.544Z,10.20
2023-04-25T09:19:15.500Z,10.22
2023-04-25T09:20:15.458Z,10.25
2023-04-25T09:21:15.534Z,10.28
2023-04-25T09:22:15.431Z,10.31
2023-04-25T09:23:15.432Z,10.32
2023-04-25T09:24:15.395Z,10.38
2023-04-25T09:25:15.434Z,10.42
2023-04-25T09:26:15.376Z,10.46
2023-04-25T09:27:15.385Z,10.51
2023-04-25T09:28:15.391Z,10.57
2023-04-25T09:29:15.366Z,10.60
2023-04-25T09:30:15.339Z,10.66
2023-04-25T09:31:15.310Z,10.72
2023-04-25T09:32:15.374Z,10.81
2023-04-25T09:33:15.413Z,10.87
2023-04-25T09:34:15.512Z,10.93
2023-04-25T09:35:15.261Z,11.01
2023-04-25T09:36:15.269Z,11.03
2023-04-25T09:37:15.267Z,11.06
2023-04-25T09:38:15.247Z,11.12
2023-04-25T09:39:15.199Z,11.16
2023-04-25T09:40:15.192Z,11.21
2023-04-25T09:41:15.194Z,11.24
2023-04-25T09:42:15.219Z,11.28
2023-04-25T09:43:15.232Z,11.28
2023-04-25T09:44:15.247Z,11.31
2023-04-25T09:45:15.233Z,11.35
2023-04-25T09:46:15.168Z,11.38
2023-04-25T09:47:15.098Z,11.42
2023-04-25T09:48:15.109Z,11.44
2023-04-25T09:49:15.084Z,11.48
2023-04-25T09:50:15.130Z,11.54
2023-04-25T09:51:15.073Z,11.59
2023-04-25T09:52:15.039Z,11.64
2023-04-25T09:53:15.059Z,11.70
2023-04-25T09:54:15.044Z,11.75
2023-04-25T09:55:15.001Z,11.79
2023-04-25T09:56:15.004Z,11.85
2023-04-25T09:57:15.022Z,11.93
2023-04-25T09:58:15.012Z,11.98
2023-04-25T09:59:14.993Z,12.07
2023-04-25T10:00:14.947Z,12.16
2023-04-25T10:01:14.945Z,12.25
2023-04-25T10:02:15.023Z,12.34
2023-04-25T10:03:14.961Z,12.43
2023-04-25T10:04:15.009Z,12.49
2023-04-25T10:05:15.126Z,12.54
2023-04-25T10:06:14.876Z,12.58
2023-04-25T10:07:14.868Z,12.61
2023-04-25T10:08:14.940Z,12.62
2023-04-25T10:09:14.821Z,12.62
2023-04-25T10:10:14.876Z,12.62
2023-04-25T10:11:14.781Z,12.62
2023-04-25T10:12:14.769Z,12.61
2023-04-25T10:13:14.843Z,12.59
2023-04-25T10:14:14.758Z,12.58
2023-04-25T10:15:14.741Z,12.56
2023-04-25T10:16:14.782Z,12.56
2023-04-25T10:17:14.755Z,12.56
2023-04-25T10:18:14.753Z,12.54
2023-04-25T10:19:14.702Z,12.51
2023-04-25T10:20:14.688Z,12.48
2023-04-25T10:21:14.660Z,12.48
2023-04-25T10:22:14.651Z,12.48
2023-04-25T10:23:14.649Z,12.41
2023-04-25T10:24:14.639Z,12.38
2023-04-25T10:25:14.671Z,12.37
2023-04-25T10:26:14.596Z,12.37
2023-04-25T10:27:14.589Z,12.36
2023-04-25T10:28:14.606Z,12.33
2023-04-25T10:29:14.693Z,12.30
2023-04-25T10:30:14.612Z,12.29
2023-04-25T10:31:14.603Z,12.25
2023-04-25T10:32:14.709Z,12.22
2023-04-25T10:33:14.523Z,12.15
2023-04-25T10:34:14.494Z,12.12
2023-04-25T10:35:14.502Z,12.07
2023-04-25T10:36:14.474Z,12.04
2023-04-25T10:37:14.479Z,12.03
2023-04-25T10:38:14.497Z,12.00
2023-04-25T10:39:14.475Z,11.97
2023-04-25T10:40:14.512Z,11.94
2023-04-25T10:41:14.405Z,11.93
2023-04-25T10:42:14.437Z,11.87
2023-04-25T10:43:15.121Z,11.84
2023-04-25T10:44:14.357Z,11.81
2023-04-25T10:45:14.360Z,11.79
2023-04-25T10:46:14.436Z,11.77
2023-04-25T10:47:14.380Z,11.74
2023-04-25T10:48:14.354Z,11.75
2023-04-25T10:49:15.685Z,11.74
2023-04-25T10:50:14.351Z,11.74
2023-04-25T10:51:14.259Z,11.72
2023-04-25T10:52:14.599Z,11.72
2023-04-25T10:53:14.244Z,11.72
2023-04-25T10:54:14.226Z,11.70
2023-04-25T10:55:14.249Z,11.70
2023-04-25T10:56:14.578Z,11.70
2023-04-25T10:57:14.229Z,11.66
2023-04-25T10:58:14.218Z,11.66
2023-04-25T10:59:14.178Z,11.63
2023-04-25T11:00:14.219Z,11.62
2023-04-25T11:01:14.403Z,11.60
2023-04-25T11:02:14.646Z,11.57
2023-04-25T11:03:14.313Z,11.56
2023-04-25T11:04:14.270Z,11.53
2023-04-25T11:05:14.080Z,11.53
2023-04-25T11:06:14.065Z,11.51
2023-04-25T11:07:14.067Z,11.51
2023-04-25T11:08:14.113Z,11.53
2023-04-25T11:09:14.045Z,11.51
2023-04-25T11:10:14.070Z,11.51
2023-04-25T11:11:14.036Z,11.51
2023-04-25T11:12:14.008Z,11.49
2023-04-25T11:13:13.992Z,11.48
2023-04-25T11:14:13.997Z,11.46
2023-04-25T11:15:14.002Z,11.45
2023-04-25T11:16:23.622Z,11.42
2023-04-25T11:17:15.000Z,11.39
2023-04-25T11:18:13.959Z,11.38
2023-04-25T11:19:13.957Z,11.33
2023-04-25T11:20:13.907Z,11.28
2023-04-25T11:21:13.884Z,11.26
2023-04-25T11:22:13.884Z,11.26
2023-04-25T11:23:13.887Z,11.20
2023-04-25T11:24:13.850Z,11.17
2023-04-25T11:25:13.816Z,11.13
2023-04-25T11:26:13.869Z,11.11
2023-04-25T11:27:13.799Z,11.08
2023-04-25T11:28:13.773Z,11.05
2023-04-25T11:29:13.798Z,11.01
2023-04-25T11:30:13.785Z,10.98
2023-04-25T11:31:13.783Z,10.94
2023-04-25T11:32:13.808Z,10.93
2023-04-25T11:33:14.072Z,10.90
2023-04-25T11:34:13.689Z,10.90
2023-04-25T11:35:13.719Z,10.90
2023-04-25T11:36:13.745Z,10.91
2023-04-25T11:37:13.746Z,10.93
2023-04-25T11:38:13.646Z,10.94
2023-04-25T11:39:13.685Z,10.99
2023-04-25T11:40:14.342Z,11.01
2023-04-25T11:41:13.653Z,11.05
2023-04-25T11:42:14.190Z,11.06
2023-04-25T11:43:13.720Z,11.09
2023-04-25T11:44:13.602Z,11.09
2023-04-25T11:45:13.580Z,11.09
2023-04-25T11:46:13.621Z,11.11
2023-04-25T11:47:13.591Z,11.12
2023-04-25T11:48:13.630Z,11.13
2023-04-25T11:49:13.529Z,11.16
2023-04-25T11:50:13.519Z,11.19
2023-04-25T11:51:13.498Z,11.23
2023-04-25T11:52:13.483Z,11.26
2023-04-25T11:53:13.461Z,11.28
2023-04-25T11:54:13.511Z,11.31
2023-04-25T11:55:13.450Z,11.30
2023-04-25T11:56:13.474Z,11.33
2023-04-25T11:57:13.421Z,11.35
2023-04-25T11:58:13.452Z,11.38
2023-04-25T11:59:13.726Z,11.36
2023-04-25T12:00:17.495Z,11.38
2023-04-25T12:01:13.370Z,11.39
2023-04-25T12:02:13.442Z,11.39
2023-04-25T12:03:13.538Z,11.41
2023-04-25T12:04:13.683Z,11.42
2023-04-25T12:05:30.460Z,11.42
2023-04-25T12:06:14.642Z,11.42
2023-04-25T12:07:13.270Z,11.42
2023-04-25T12:08:13.278Z,11.38
2023-04-25T12:09:13.241Z,11.39
2023-04-25T12:10:13.254Z,11.39
2023-04-25T12:11:13.259Z,11.38
2023-04-25T12:12:13.233Z,11.38
2023-04-25T12:13:13.198Z,11.38
2023-04-25T12:14:13.201Z,11.36
2023-04-25T12:15:13.158Z,11.38
2023-04-25T12:16:13.348Z,11.39
2023-04-25T12:17:13.201Z,11.39
2023-04-25T12:18:13.161Z,11.41
2023-04-25T12:19:13.113Z,11.42
2023-04-25T12:20:13.095Z,11.44
2023-04-25T12:21:13.148Z,11.42
2023-04-25T12:22:13.065Z,11.41
2023-04-25T12:23:13.105Z,11.41
2023-04-25T12:24:13.057Z,11.42
2023-04-25T12:25:13.064Z,11.44
2023-04-25T12:26:13.038Z,11.46
2023-04-25T12:27:13.102Z,11.51
2023-04-25T12:28:13.092Z,11.59
2023-04-25T12:29:12.992Z,11.67
2023-04-25T12:30:12.998Z,11.81
2023-04-25T12:31:12.994Z,11.94
2023-04-25T12:32:12.961Z,12.04
2023-04-25T12:33:12.960Z,12.15
2023-04-25T12:34:12.944Z,12.29
2023-04-25T12:35:12.921Z,12.40
2023-04-25T12:36:12.917Z,12.55
2023-04-25T12:37:12.923Z,12.67
2023-04-25T12:38:12.871Z,12.74
2023-04-25T12:39:12.876Z,12.79
2023-04-25T12:40:12.895Z,12.85
2023-04-25T12:41:12.869Z,12.89
2023-04-25T12:42:13.363Z,12.91
2023-04-25T12:43:12.866Z,12.91
2023-04-25T12:44:12.831Z,12.92
2023-04-25T12:45:12.853Z,12.88
2023-04-25T12:46:12.849Z,12.88
2023-04-25T12:47:12.822Z,12.85
2023-04-25T12:48:12.819Z,12.88
2023-04-25T12:50:12.729Z,12.89
2023-04-25T12:51:12.741Z,12.94
2023-04-25T12:52:12.712Z,12.98
2023-04-25T12:53:12.704Z,13.04
2023-04-25T12:54:12.685Z,13.13
2023-04-25T12:55:12.703Z,13.19
2023-04-25T12:56:12.658Z,13.25
2023-04-25T12:57:12.639Z,13.31
2023-04-25T12:58:12.617Z,13.39
2023-04-25T12:59:12.600Z,13.47
2023-04-25T13:00:12.605Z,13.62
2023-04-25T13:01:12.594Z,13.71
2023-04-25T13:02:12.641Z,13.76
2023-04-25T13:03:12.677Z,13.86
2023-04-25T13:04:12.634Z,14.01
2023-04-25T13:05:12.544Z,14.11